Time;durP1;ratioP1;P1;durP2;ratioP2;P2;SDS_P1;SDS_P2;PMS_P1;PMS_P2;Temp;Humidity;BMP_temperature;BMP_pressure;BME280_temperature;BME280_humidity;BME280_pressure;Samples;Min_cycle;Max_cycle;Signal;HPM_P1;HPM_P2
2022/12/21 00:01:53;;;;;;;;;;;;;;;16.21;47.46;102063.66;5099748;28;1910;-50
2022/12/21 00:04:18;;;;;;;;;;;;;;;15.77;48.99;102063.13;5099938;28;1150;-46
2022/12/21 00:06:44;;;;;;;;;;;;;;;17.27;45.24;102055.16;5099145;28;1085;-46
2022/12/21 00:09:10;;;;;;;;;;;;;;;16.35;47.22;102056.84;5099794;28;1022;-50
2022/12/21 00:11:36;;;;;;;;;;;;;;;15.80;48.78;102059.97;5099660;28;1118;-46
2022/12/21 00:14:01;;;;;;;;;;;;;;;15.58;49.11;102055.00;5099629;28;1216;-47
2022/12/21 00:16:27;;;;;;;;;;;;;;;17.14;45.51;102049.13;5099388;28;1107;-50
2022/12/21 00:18:53;;;;;;;;;;;;;;;16.38;47.16;102048.16;5099335;28;1160;-49
2022/12/21 00:21:19;;;;;;;;;;;;;;;15.80;48.55;102032.56;5099358;28;1913;-46
2022/12/21 00:23:45;;;;;;;;;;;;;;;15.56;49.38;102054.41;5092887;28;1019;-48
2022/12/21 00:26:11;;;;;;;;;;;;;;;17.10;45.62;102043.31;5099441;28;1118;-45
2022/12/21 00:28:37;;;;;;;;;;;;;;;16.50;46.82;102044.53;5099312;28;1142;-47
2022/12/21 00:31:04;;;;;;;;;;;;;;;15.88;48.51;102044.00;5098986;28;936;-51
2022/12/21 00:33:29;;;;;;;;;;;;;;;15.57;49.09;102047.84;5099305;28;1090;-47
2022/12/21 00:35:54;;;;;;;;;;;;;;;16.86;46.33;102040.63;5085193;28;1100;-48
2022/12/21 00:38:20;;;;;;;;;;;;;;;16.65;46.34;102030.28;5085337;28;1020;-48
2022/12/21 00:40:45;;;;;;;;;;;;;;;15.90;48.34;102025.38;5099271;28;1905;-43
2022/12/21 00:43:11;;;;;;;;;;;;;;;16.56;46.71;102027.09;5097812;28;1210;-48
2022/12/21 00:45:36;;;;;;;;;;;;;;;16.92;45.83;102033.34;5097606;28;1245;-48
2022/12/21 00:48:02;;;;;;;;;;;;;;;16.04;48.17;102028.72;5097302;28;1353;-49
2022/12/21 00:50:27;;;;;;;;;;;;;;;15.67;48.93;102012.47;5099188;28;1142;-48
2022/12/21 00:52:53;;;;;;;;;;;;;;;15.43;49.32;102025.31;5098589;28;1122;-49
2022/12/21 00:55:18;;;;;;;;;;;;;;;16.62;46.81;102026.13;5099426;28;1166;-49
2022/12/21 00:57:43;;;;;;;;;;;;;;;16.86;45.83;102021.38;5098870;28;1158;-49
2022/12/21 01:00:09;;;;;;;;;;;;;;;15.95;48.12;102021.94;5098375;28;1129;-47
2022/12/21 01:02:35;;;;;;;;;;;;;;;15.89;48.32;102010.00;5098393;28;1913;-49
2022/12/21 01:05:02;;;;;;;;;;;;;;;17.23;44.83;102014.66;5098596;28;1164;-47
2022/12/21 01:07:27;;;;;;;;;;;;;;;16.13;47.58;102018.22;5097452;28;1180;-49
2022/12/21 01:09:53;;;;;;;;;;;;;;;15.72;48.67;102012.59;5098889;28;1173;-49
2022/12/21 01:12:19;;;;;;;;;;;;;;;16.42;47.30;102010.06;5085064;28;1045;-48
2022/12/21 01:14:44;;;;;;;;;;;;;;;16.91;45.87;102009.69;5098349;28;1030;-48
2022/12/21 01:17:10;;;;;;;;;;;;;;;16.00;48.11;102013.81;5098127;28;1126;-49
2022/12/21 01:19:35;;;;;;;;;;;;;;;15.60;49.04;102006.28;5098328;28;1138;-46
2022/12/21 01:22:00;;;;;;;;;;;;;;;16.35;47.20;102021.16;5097921;28;1985;-47
2022/12/21 01:24:26;;;;;;;;;;;;;;;17.02;45.43;102014.28;5096854;28;1118;-48
2022/12/21 01:26:52;;;;;;;;;;;;;;;16.04;47.91;102015.00;5098529;28;1225;-49
2022/12/21 01:29:17;;;;;;;;;;;;;;;15.63;48.80;102010.44;5098084;28;1058;-48
2022/12/21 01:31:42;;;;;;;;;;;;;;;16.54;46.77;102016.34;5097971;28;1081;-48
2022/12/21 01:34:09;;;;;;;;;;;;;;;16.85;45.69;102019.72;5096858;28;1116;-48
2022/12/21 01:36:34;;;;;;;;;;;;;;;15.95;48.04;102010.13;5096191;28;1086;-48
2022/12/21 01:39:02;;;;;;;;;;;;;;;15.57;48.83;102003.97;5097286;28;1181;-49
2022/12/21 01:41:28;;;;;;;;;;;;;;;16.46;47.01;102010.41;5097901;28;1918;-47
2022/12/21 01:43:53;;;;;;;;;;;;;;;16.92;45.59;102008.63;5097621;28;1112;-47
2022/12/21 01:46:22;;;;;;;;;;;;;;;15.98;47.93;101999.50;5098026;28;1225;-50
2022/12/21 01:48:52;;;;;;;;;;;;;;;15.60;48.80;101992.56;5093834;28;1210;-48
2022/12/21 01:51:17;;;;;;;;;;;;;;;16.85;45.83;101986.75;5083015;28;1162;-46
2022/12/21 01:53:44;;;;;;;;;;;;;;;16.57;46.24;101979.34;5097830;28;1136;-49
2022/12/21 01:56:10;;;;;;;;;;;;;;;15.87;48.08;101981.16;5096980;28;1046;-48
2022/12/21 01:58:35;;;;;;;;;;;;;;;15.57;48.96;101993.00;5096042;28;1161;-46
2022/12/21 02:01:01;;;;;;;;;;;;;;;17.13;45.23;101987.00;5095172;28;1983;-51
2022/12/21 02:03:29;;;;;;;;;;;;;;;16.38;46.64;101987.75;5097265;28;1113;-50
2022/12/21 02:06:02;;;;;;;;;;;;;;;15.76;48.20;101968.25;5097524;28;1176;-51
2022/12/21 02:08:28;;;;;;;;;;;;;;;16.42;46.83;101966.13;5097615;28;1166;-50
2022/12/21 02:10:53;;;;;;;;;;;;;;;17.22;44.69;101960.75;5095948;28;1305;-51
2022/12/21 02:13:21;;;;;;;;;;;;;;;16.14;47.40;101970.47;5096121;28;1160;-51
2022/12/21 02:15:58;;;;;;;;;;;;;;;15.73;48.33;101953.91;5097381;28;1144;-51
2022/12/21 02:18:33;;;;;;;;;;;;;;;16.61;46.28;101958.56;5096226;28;1190;-50
2022/12/21 02:21:20;;;;;;;;;;;;;;;16.58;46.36;101946.13;5096518;28;1981;-49
2022/12/21 02:23:59;;;;;;;;;;;;;;;15.79;48.32;101949.41;5096277;28;1329;-47
2022/12/21 02:26:43;;;;;;;;;;;;;;;16.79;45.94;101943.78;5096448;28;1093;-52
2022/12/21 02:29:27;;;;;;;;;;;;;;;16.56;46.19;101939.22;5096877;28;1078;-51
2022/12/21 02:31:58;;;;;;;;;;;;;;;15.85;47.99;101944.88;5083760;28;1178;-49
2022/12/21 02:34:59;;;;;;;;;;;;;;;15.56;48.77;101952.97;5096879;28;1050;-48
2022/12/21 02:37:35;;;;;;;;;;;;;;;16.77;45.97;101934.94;5034005;28;1269;-51
2022/12/21 02:40:20;;;;;;;;;;;;;;;16.57;46.27;101940.91;5074962;28;1099;-51
2022/12/21 02:45:50;;;;;;;;;;;;;;;15.65;48.46;101932.34;5095712;28;1050;-48
2022/12/21 02:48:31;;;;;;;;;;;;;;;17.39;44.52;101934.13;5096689;28;1054;-50
2022/12/21 02:50:57;;;;;;;;;;;;;;;16.28;47.00;101937.31;5095715;28;928;-47
2022/12/21 02:53:26;;;;;;;;;;;;;;;15.77;47.94;101937.84;5095234;28;2138;-49
2022/12/21 02:55:51;;;;;;;;;;;;;;;15.68;48.55;101948.34;5078508;28;1101;-45
2022/12/21 02:58:18;;;;;;;;;;;;;;;17.29;44.53;101942.19;5095256;28;1420;-47
2022/12/21 03:01:03;;;;;;;;;;;;;;;16.48;46.28;101943.22;5096869;28;2005;-48
2022/12/21 03:04:04;;;;;;;;;;;;;;;15.79;48.19;101932.09;5088226;28;1610;-50
2022/12/21 03:06:52;;;;;;;;;;;;;;;15.49;48.77;101927.59;5045756;28;1128;-50
2022/12/21 03:09:39;;;;;;;;;;;;;;;17.27;44.81;101919.63;5095154;28;1011;-48
2022/12/21 03:12:14;;;;;;;;;;;;;;;16.22;47.00;101919.91;5093819;28;1597;-49
2022/12/21 03:14:54;;;;;;;;;;;;;;;15.70;48.25;101924.25;5095288;28;885;-47
2022/12/21 03:17:29;;;;;;;;;;;;;;;16.78;45.65;101914.66;5082565;28;1299;-48
2022/12/21 03:19:57;;;;;;;;;;;;;;;16.52;46.31;101916.06;5094654;28;1309;-45
2022/12/21 03:22:25;;;;;;;;;;;;;;;15.88;47.93;101911.50;5095258;28;1974;-44
2022/12/21 03:25:09;;;;;;;;;;;;;;;17.17;44.90;101911.22;5094656;28;1058;-49
2022/12/21 03:27:37;;;;;;;;;;;;;;;16.30;46.68;101903.03;5087316;28;1162;-44
2022/12/21 03:30:06;;;;;;;;;;;;;;;15.78;48.21;101905.75;5095233;28;1067;-49
2022/12/21 03:32:40;;;;;;;;;;;;;;;16.60;46.22;101902.78;5094655;28;1142;-49
2022/12/21 03:35:07;;;;;;;;;;;;;;;17.00;44.81;101911.19;5096305;28;1034;-50
2022/12/21 03:37:34;;;;;;;;;;;;;;;16.07;47.11;101917.66;5095038;28;1221;-50
2022/12/21 03:40:01;;;;;;;;;;;;;;;15.70;48.21;101915.19;5081746;28;1000;-51
2022/12/21 03:42:28;;;;;;;;;;;;;;;15.41;49.00;101904.09;5094254;28;1914;-48
2022/12/21 03:44:55;;;;;;;;;;;;;;;16.86;45.52;101899.69;5081586;28;1110;-49
2022/12/21 03:47:22;;;;;;;;;;;;;;;16.65;45.60;101898.47;5095817;28;1062;-49
2022/12/21 03:49:51;;;;;;;;;;;;;;;15.86;47.77;101886.22;5094410;28;1042;-50
2022/12/21 03:52:20;;;;;;;;;;;;;;;15.55;48.41;101893.75;5094777;28;1210;-49
2022/12/21 03:55:01;;;;;;;;;;;;;;;17.17;44.83;101894.72;5094702;28;1023;-49
2022/12/21 03:57:27;;;;;;;;;;;;;;;16.31;46.50;101895.63;5095782;28;1039;-51
2022/12/21 03:59:53;;;;;;;;;;;;;;;15.77;47.79;101884.88;5096068;28;1116;-50
2022/12/21 04:02:26;;;;;;;;;;;;;;;16.30;46.73;101881.09;5095588;28;1905;-49
2022/12/21 04:05:03;;;;;;;;;;;;;;;16.95;45.06;101876.22;5094181;28;1445;-51
2022/12/21 04:07:28;;;;;;;;;;;;;;;15.95;47.48;101872.94;5094483;28;1091;-50
2022/12/21 04:09:55;;;;;;;;;;;;;;;15.69;48.24;101870.47;5094388;28;1151;-53
2022/12/21 04:12:39;;;;;;;;;;;;;;;17.24;44.43;101881.66;5093900;28;1086;-49
2022/12/21 04:15:09;;;;;;;;;;;;;;;16.39;46.05;101878.78;5095094;28;1018;-51
2022/12/21 04:17:34;;;;;;;;;;;;;;;15.82;47.48;101879.53;5095654;28;1019;-51
2022/12/21 04:20:00;;;;;;;;;;;;;;;15.85;47.86;101890.03;5095464;28;1134;-55
2022/12/21 04:28:09;;;;;;;;;;;;;;;15.68;47.78;101884.41;5094034;28;996;-53
2022/12/21 04:30:35;;;;;;;;;;;;;;;16.92;45.02;101872.06;5099577;28;1094;-53
2022/12/21 04:33:01;;;;;;;;;;;;;;;16.86;45.13;101867.53;5098024;28;1142;-53
2022/12/21 04:35:26;;;;;;;;;;;;;;;15.98;47.12;101867.81;5098801;28;1177;-53
2022/12/21 04:37:52;;;;;;;;;;;;;;;15.63;48.21;101863.22;5098644;28;1096;-53
2022/12/21 04:40:17;;;;;;;;;;;;;;;16.83;45.23;101862.56;5099754;28;1014;-53
2022/12/21 04:42:42;;;;;;;;;;;;;;;16.65;45.46;101866.34;5099062;28;1905;-54
2022/12/21 04:45:08;;;;;;;;;;;;;;;15.89;47.20;101858.28;5098864;28;1122;-52
2022/12/21 04:47:33;;;;;;;;;;;;;;;15.57;48.29;101861.41;5097431;28;2606;-54
2022/12/21 04:49:59;;;;;;;;;;;;;;;16.98;44.79;101866.66;5096777;28;2173;-58
2022/12/21 04:52:24;;;;;;;;;;;;;;;16.51;45.63;101862.25;5097865;28;2182;-55
2022/12/21 04:54:50;;;;;;;;;;;;;;;15.81;47.70;101864.16;5098490;28;2170;-53
2022/12/21 04:57:16;;;;;;;;;;;;;;;15.48;48.20;101860.13;5093931;28;2326;-55
2022/12/21 04:59:42;;;;;;;;;;;;;;;16.42;46.09;101854.44;5091493;28;2196;-51
2022/12/21 05:02:07;;;;;;;;;;;;;;;17.21;43.92;101860.16;5097926;28;1905;-55
2022/12/21 05:04:32;;;;;;;;;;;;;;;16.07;46.81;101866.38;5097876;28;1034;-55
2022/12/21 05:06:58;;;;;;;;;;;;;;;15.67;47.98;101860.81;5097702;28;1111;-55
2022/12/21 05:09:25;;;;;;;;;;;;;;;15.69;47.79;101859.50;5098069;28;1023;-55
2022/12/21 05:11:51;;;;;;;;;;;;;;;17.22;44.19;101845.31;5097692;28;995;-55
2022/12/21 05:14:17;;;;;;;;;;;;;;;16.24;46.28;101849.97;5091496;28;1126;-53
2022/12/21 05:16:42;;;;;;;;;;;;;;;15.70;47.56;101852.13;5097791;28;1065;-54
2022/12/21 05:19:08;;;;;;;;;;;;;;;15.40;48.26;101859.44;5097780;28;1138;-57
2022/12/21 05:21:33;;;;;;;;;;;;;;;16.82;44.96;101854.56;5097673;28;1990;-55
2022/12/21 05:23:58;;;;;;;;;;;;;;;16.77;44.98;101858.88;5097695;28;1034;-54
2022/12/21 05:26:24;;;;;;;;;;;;;;;15.90;46.92;101854.50;5096600;28;1078;-53
2022/12/21 05:28:49;;;;;;;;;;;;;;;15.51;48.01;101855.00;5098028;28;1130;-54
2022/12/21 05:31:15;;;;;;;;;;;;;;;16.70;45.28;101858.19;5097367;28;2376;-54
2022/12/21 05:33:40;;;;;;;;;;;;;;;16.81;44.80;101853.72;5097764;28;1118;-53
2022/12/21 05:36:13;;;;;;;;;;;;;;;15.92;46.90;101849.56;5095973;28;1417;-52
2022/12/21 05:38:44;;;;;;;;;;;;;;;15.98;47.09;101854.09;5096766;28;1201;-53
2022/12/21 05:41:22;;;;;;;;;;;;;;;17.30;43.81;101844.06;5096134;28;1980;-54
2022/12/21 05:43:51;;;;;;;;;;;;;;;16.10;46.30;101831.28;5096592;28;1007;-52
2022/12/21 05:46:16;;;;;;;;;;;;;;;15.67;47.44;101839.72;5097457;28;1066;-55
2022/12/21 05:48:41;;;;;;;;;;;;;;;16.12;46.87;101840.09;5097359;28;1161;-53
2022/12/21 05:51:10;;;;;;;;;;;;;;;17.39;43.63;101842.53;5096852;28;1121;-52
2022/12/21 05:53:36;;;;;;;;;;;;;;;16.18;46.41;101834.47;5097390;28;1038;-55
2022/12/21 05:56:02;;;;;;;;;;;;;;;15.72;47.34;101826.13;5097037;28;1207;-56
2022/12/21 05:58:27;;;;;;;;;;;;;;;16.24;46.42;101827.16;5097054;28;1165;-51
2022/12/21 06:00:53;;;;;;;;;;;;;;;17.35;43.68;101828.47;5097278;28;1910;-53
2022/12/21 06:03:18;;;;;;;;;;;;;;;16.21;46.14;101825.72;5086167;28;1781;-56
2022/12/21 06:05:44;;;;;;;;;;;;;;;15.73;47.30;101822.28;5097188;28;1378;-56
2022/12/21 06:08:09;;;;;;;;;;;;;;;15.91;47.35;101820.50;5096912;28;1118;-55
2022/12/21 06:10:35;;;;;;;;;;;;;;;17.37;43.77;101818.06;5097001;28;1106;-51
2022/12/21 06:13:01;;;;;;;;;;;;;;;16.26;45.87;101819.53;5096630;28;1077;-54
2022/12/21 06:15:26;;;;;;;;;;;;;;;15.74;47.28;101823.97;5096791;28;983;-54
2022/12/21 06:17:52;;;;;;;;;;;;;;;15.49;47.99;101831.66;5095677;28;1256;-56
2022/12/21 06:20:18;;;;;;;;;;;;;;;16.92;44.81;101832.78;5096455;28;1023;-53
2022/12/21 06:22:43;;;;;;;;;;;;;;;16.68;44.90;101832.91;5096676;28;1909;-56
2022/12/21 06:25:08;;;;;;;;;;;;;;;15.84;47.11;101819.81;5096735;28;1111;-57
2022/12/21 06:27:34;;;;;;;;;;;;;;;17.74;42.53;101820.19;5096562;28;1169;-56
2022/12/21 06:29:59;;;;;;;;;;;;;;;16.35;45.74;101819.97;5097199;28;1118;-56
2022/12/21 06:32:25;;;;;;;;;;;;;;;17.61;43.08;101823.31;5086784;28;1823;-56
2022/12/21 06:34:50;;;;;;;;;;;;;;;17.47;43.08;101822.84;5096876;28;1118;-54
2022/12/21 06:37:16;;;;;;;;;;;;;;;16.95;44.42;101826.78;5096460;28;1109;-53
2022/12/21 06:39:41;;;;;;;;;;;;;;;18.58;40.86;101837.38;5096259;28;1453;-54
2022/12/21 06:42:07;;;;;;;;;;;;;;;17.06;44.17;101833.28;5096487;28;1913;-55
2022/12/21 06:44:33;;;;;;;;;;;;;;;18.30;41.79;101835.72;5094837;28;1082;-55
2022/12/21 06:46:59;;;;;;;;;;;;;;;18.35;41.16;101827.50;5095657;28;1047;-57
2022/12/21 06:49:24;;;;;;;;;;;;;;;17.02;44.03;101837.59;5097511;28;1129;-58
2022/12/21 06:51:50;;;;;;;;;;;;;;;17.20;44.17;101831.00;5092665;28;1096;-55
2022/12/21 06:54:15;;;;;;;;;;;;;;;17.19;43.84;101832.09;5096130;28;1193;-55
2022/12/21 06:56:41;;;;;;;;;;;;;;;18.14;42.29;101840.22;5096160;28;1094;-57
2022/12/21 06:59:06;;;;;;;;;;;;;;;19.22;39.56;101837.63;5094401;28;1522;-56
2022/12/21 07:01:32;;;;;;;;;;;;;;;17.36;43.32;101841.16;5094528;28;1945;-55
2022/12/21 07:03:58;;;;;;;;;;;;;;;17.85;42.84;101845.06;5094080;28;1146;-55
2022/12/21 07:06:24;;;;;;;;;;;;;;;17.89;42.54;101840.72;5089319;28;1253;-56
2022/12/21 07:08:49;;;;;;;;;;;;;;;17.11;44.49;101849.84;5085843;28;1039;-58
2022/12/21 07:11:15;;;;;;;;;;;;;;;19.08;40.30;101840.00;5094730;28;1478;-56
2022/12/21 07:13:41;;;;;;;;;;;;;;;17.48;43.42;101835.53;5094922;28;1234;-55
2022/12/21 07:16:07;;;;;;;;;;;;;;;18.87;40.63;101833.47;5094451;28;1090;-55
2022/12/21 07:18:34;;;;;;;;;;;;;;;18.77;40.71;101828.72;5094542;28;1182;-55
2022/12/21 07:21:02;;;;;;;;;;;;;;;17.49;43.52;101837.19;5094846;28;1913;-56
2022/12/21 07:23:28;;;;;;;;;;;;;;;18.49;41.93;101835.34;5094959;28;1038;-57
2022/12/21 07:25:53;;;;;;;;;;;;;;;17.58;43.53;101834.84;5095234;28;1113;-55
2022/12/21 07:28:19;;;;;;;;;;;;;;;18.53;41.70;101833.75;5094328;28;1189;-53
2022/12/21 07:30:48;;;;;;;;;;;;;;;19.00;40.41;101826.72;5094549;28;1015;-54
2022/12/21 07:33:16;;;;;;;;;;;;;;;17.60;43.14;101833.50;5093624;28;1765;-54
2022/12/21 07:35:42;;;;;;;;;;;;;;;17.02;44.25;101832.94;5086511;28;1031;-52
2022/12/21 07:38:07;;;;;;;;;;;;;;;18.01;42.55;101830.44;5095339;28;1169;-50
2022/12/21 07:40:33;;;;;;;;;;;;;;;17.00;44.71;101832.34;5081845;28;1091;-50
2022/12/21 07:42:58;;;;;;;;;;;;;;;18.85;40.85;101830.16;5090533;28;1886;-47
2022/12/21 07:45:38;;;;;;;;;;;;;;;17.61;43.59;101828.81;5090075;28;1257;-50
2022/12/21 07:48:04;;;;;;;;;;;;;;;17.31;44.31;101823.75;5083187;28;1158;-50
2022/12/21 07:50:29;;;;;;;;;;;;;;;18.29;42.14;101823.06;5087028;28;1217;-48
2022/12/21 07:52:57;;;;;;;;;;;;;;;17.25;44.29;101829.16;5084465;28;1205;-50
2022/12/21 07:55:23;;;;;;;;;;;;;;;18.88;40.87;101824.16;5083893;28;1406;-50
2022/12/21 07:57:48;;;;;;;;;;;;;;;17.75;43.03;101819.13;5087439;28;1248;-50
2022/12/21 08:00:14;;;;;;;;;;;;;;;17.40;44.48;101820.31;5090067;28;1002;-52
2022/12/21 08:02:40;;;;;;;;;;;;;;;18.62;41.15;101810.97;5095410;28;1914;-53
2022/12/21 08:05:05;;;;;;;;;;;;;;;17.44;43.76;101818.69;5086491;28;843;-55
2022/12/21 08:07:31;;;;;;;;;;;;;;;18.85;41.00;101814.47;5095336;28;1152;-51
2022/12/21 08:09:56;;;;;;;;;;;;;;;18.04;42.62;101799.66;5099318;28;1254;-46
2022/12/21 08:12:21;;;;;;;;;;;;;;;17.17;44.59;101795.78;5087493;28;1130;-53
2022/12/21 08:14:47;;;;;;;;;;;;;;;18.94;40.68;101782.59;5094574;28;1173;-53
2022/12/21 08:17:12;;;;;;;;;;;;;;;17.60;43.64;101789.50;5087375;28;1238;-56
2022/12/21 08:19:38;;;;;;;;;;;;;;;17.74;43.67;101792.69;5095375;28;1245;-50
2022/12/21 08:22:03;;;;;;;;;;;;;;;17.97;42.56;101787.22;5096995;28;1988;-56
2022/12/21 08:24:29;;;;;;;;;;;;;;;17.17;44.23;101782.06;5092068;28;1190;-46
2022/12/21 08:26:54;;;;;;;;;;;;;;;18.64;41.62;101777.66;5081122;28;1022;-55
2022/12/21 08:29:20;;;;;;;;;;;;;;;17.31;43.93;101779.78;5093723;28;975;-50
2022/12/21 08:31:46;;;;;;;;;;;;;;;18.13;42.74;101789.00;5087664;28;1755;-52
2022/12/21 08:34:11;;;;;;;;;;;;;;;18.36;41.87;101790.63;5093625;28;1198;-53
2022/12/21 08:36:37;;;;;;;;;;;;;;;17.30;44.05;101787.16;5093015;28;1217;-56
2022/12/21 08:39:03;;;;;;;;;;;;;;;19.14;40.65;101775.56;5093779;28;1188;-52
2022/12/21 08:41:28;;;;;;;;;;;;;;;17.90;43.08;101776.38;5093083;28;1949;-47
2022/12/21 08:43:54;;;;;;;;;;;;;;;17.22;44.06;101782.09;5093457;28;1317;-47
2022/12/21 08:46:19;;;;;;;;;;;;;;;17.06;44.61;101772.81;5091356;28;1229;-52
2022/12/21 08:48:46;;;;;;;;;;;;;;;17.82;43.32;101765.81;5093320;28;1141;-50
2022/12/21 08:51:11;;;;;;;;;;;;;;;17.03;44.60;101757.66;5094961;28;1107;-50
2022/12/21 08:53:36;;;;;;;;;;;;;;;18.62;42.52;101755.03;5093007;28;1359;-54
2022/12/21 08:56:03;;;;;;;;;;;;;;;17.21;45.17;101756.53;5093164;28;1190;-52
2022/12/21 08:58:28;;;;;;;;;;;;;;;16.90;45.46;101744.25;5087502;28;1233;-51
2022/12/21 09:00:54;;;;;;;;;;;;;;;18.11;43.32;101750.72;5091786;28;1913;-47
2022/12/21 09:03:20;;;;;;;;;;;;;;;17.10;45.55;101732.75;5107087;28;1741;-47
2022/12/21 09:05:45;;;;;;;;;;;;;;;16.92;45.51;101731.13;5092341;28;1153;-46
2022/12/21 09:08:11;;;;;;;;;;;;;;;17.81;44.74;101731.97;5091095;28;1126;-49
2022/12/21 09:10:36;;;;;;;;;;;;;;;17.47;44.99;101720.31;5091136;28;921;-50
2022/12/21 09:13:02;;;;;;;;;;;;;;;17.09;45.84;101726.41;5081440;28;968;-49
2022/12/21 09:15:27;;;;;;;;;;;;;;;18.77;42.12;101719.31;5088350;28;1174;-54
2022/12/21 09:17:53;;;;;;;;;;;;;;;17.41;44.80;101713.91;5092498;28;1241;-49
2022/12/21 09:20:18;;;;;;;;;;;;;;;16.88;45.48;101707.97;5094970;28;1435;-48
2022/12/21 09:22:43;;;;;;;;;;;;;;;17.67;44.34;101706.78;5094823;28;1910;-49
2022/12/21 09:25:09;;;;;;;;;;;;;;;18.44;43.16;101702.03;5095749;28;1558;-49
2022/12/21 09:27:34;;;;;;;;;;;;;;;19.72;39.88;101691.94;5095735;28;1470;-44
2022/12/21 09:30:00;;;;;;;;;;;;;;;18.09;43.21;101686.88;5093482;28;1213;-43
2022/12/21 09:32:25;;;;;;;;;;;;;;;17.44;44.37;101678.47;5093627;28;1914;-48
2022/12/21 09:34:51;;;;;;;;;;;;;;;17.71;44.41;101691.44;5096972;28;1094;-47
2022/12/21 09:37:17;;;;;;;;;;;;;;;17.93;43.73;101683.13;5097407;28;970;-48
2022/12/21 09:39:42;;;;;;;;;;;;;;;17.18;44.93;101688.34;5097283;28;1197;-48
2022/12/21 09:42:14;;;;;;;;;;;;;;;19.07;41.55;101679.31;5096644;28;1894;-45
2022/12/21 09:44:39;;;;;;;;;;;;;;;17.54;44.33;101680.50;5088936;28;1205;-47
2022/12/21 09:47:05;;;;;;;;;;;;;;;18.35;42.82;101683.50;5090183;28;1214;-46
2022/12/21 09:49:42;;;;;;;;;;;;;;;18.43;42.37;101677.50;5083411;28;1002;-47
2022/12/21 09:52:12;;;;;;;;;;;;;;;17.39;44.71;101674.81;5085516;28;1186;-46
2022/12/21 09:54:39;;;;;;;;;;;;;;;17.01;44.97;101671.91;5093239;28;1016;-43
2022/12/21 09:57:06;;;;;;;;;;;;;;;17.96;43.62;101659.78;5100335;28;1173;-46
2022/12/21 09:59:31;;;;;;;;;;;;;;;17.17;45.08;101650.13;5084031;28;1209;-47
2022/12/21 10:01:59;;;;;;;;;;;;;;;19.25;40.64;101650.44;5087877;28;1915;-47
2022/12/21 10:04:30;;;;;;;;;;;;;;;18.09;43.23;101642.84;5087710;28;1250;-46
2022/12/21 10:07:15;;;;;;;;;;;;;;;17.31;44.46;101637.63;5096504;28;1229;-44
2022/12/21 10:09:59;;;;;;;;;;;;;;;17.06;44.56;101636.25;5095834;28;1228;-52
2022/12/21 10:12:37;;;;;;;;;;;;;;;18.37;42.55;101642.75;5096282;28;1015;-53
2022/12/21 10:15:02;;;;;;;;;;;;;;;17.13;44.88;101638.81;5095883;28;1182;-46
2022/12/21 10:17:38;;;;;;;;;;;;;;;18.45;42.36;101634.00;5094629;28;1265;-48
2022/12/21 10:20:18;;;;;;;;;;;;;;;17.50;44.07;101640.03;5096193;28;1155;-44
2022/12/21 10:22:47;;;;;;;;;;;;;;;18.34;42.84;101638.63;5095905;28;1975;-48
2022/12/21 10:25:22;;;;;;;;;;;;;;;18.48;42.04;101627.94;5095360;28;1095;-45
2022/12/21 10:27:49;;;;;;;;;;;;;;;17.54;44.05;101621.94;5096689;28;1033;-47
2022/12/21 10:30:15;;;;;;;;;;;;;;;17.68;44.09;101625.91;5095977;28;1004;-48
2022/12/21 10:32:40;;;;;;;;;;;;;;;17.66;44.01;101621.78;5092507;28;2524;-45
2022/12/21 10:35:18;;;;;;;;;;;;;;;17.75;43.99;101625.72;5095412;28;1078;-47
2022/12/21 10:37:47;;;;;;;;;;;;;;;19.03;40.79;101609.28;5095827;28;1147;-50
2022/12/21 10:40:13;;;;;;;;;;;;;;;17.60;43.83;101618.16;5096132;28;1154;-49
2022/12/21 10:42:39;;;;;;;;;;;;;;;17.60;44.28;101607.16;5096039;28;1914;-49
2022/12/21 10:45:05;;;;;;;;;;;;;;;17.71;43.67;101613.56;5094988;28;1245;-48
2022/12/21 10:47:30;;;;;;;;;;;;;;;17.35;44.57;101594.81;5094496;28;1213;-50
2022/12/21 10:50:03;;;;;;;;;;;;;;;18.96;41.14;101592.16;5096212;28;1198;-50
2022/12/21 10:52:32;;;;;;;;;;;;;;;17.51;44.19;101597.72;5095467;28;1181;-49
2022/12/21 10:54:57;;;;;;;;;;;;;;;17.61;44.21;101606.03;5095362;28;1190;-49
2022/12/21 10:57:27;;;;;;;;;;;;;;;17.95;43.13;101594.84;5095977;28;1189;-49
2022/12/21 10:59:52;;;;;;;;;;;;;;;17.30;44.43;101608.47;5095320;28;1213;-45
2022/12/21 11:02:47;;;;;;;;;;;;;;;18.80;41.41;101588.47;5094070;28;1976;-47
2022/12/21 11:05:38;;;;;;;;;;;;;;;17.35;44.36;101599.44;5085954;28;1281;-47
2022/12/21 11:08:10;;;;;;;;;;;;;;;16.96;45.02;101596.81;5092027;28;1672;-48
2022/12/21 11:10:36;;;;;;;;;;;;;;;18.04;42.90;101585.00;5094191;28;1293;-49
2022/12/21 11:13:04;;;;;;;;;;;;;;;17.16;44.62;101582.50;5095309;28;1311;-47
2022/12/21 11:15:29;;;;;;;;;;;;;;;19.00;41.04;101579.50;5095906;28;1178;-47
2022/12/21 11:17:55;;;;;;;;;;;;;;;17.87;43.24;101584.28;5094602;28;1159;-48
2022/12/21 11:20:20;;;;;;;;;;;;;;;17.22;44.37;101576.81;5095380;28;1289;-47
2022/12/21 11:22:46;;;;;;;;;;;;;;;18.41;42.31;101573.13;5095361;28;1905;-47
2022/12/21 11:25:16;;;;;;;;;;;;;;;17.27;44.31;101578.78;5094489;28;1293;-51
2022/12/21 11:27:43;;;;;;;;;;;;;;;19.22;40.54;101570.16;5093374;28;1226;-54
2022/12/21 11:30:09;;;;;;;;;;;;;;;18.56;41.78;101566.84;5095668;28;1264;-49
2022/12/21 11:32:34;;;;;;;;;;;;;;;17.64;43.78;101564.25;5092505;28;1940;-47
2022/12/21 11:35:01;;;;;;;;;;;;;;;17.83;43.60;101566.66;5096532;28;1326;-50
2022/12/21 11:37:35;;;;;;;;;;;;;;;17.64;43.78;101569.75;5097721;28;1163;-49
2022/12/21 11:40:10;;;;;;;;;;;;;;;17.08;44.71;101562.63;5097586;28;1346;-48
2022/12/21 11:42:35;;;;;;;;;;;;;;;18.53;42.12;101563.81;5098377;28;1905;-48
2022/12/21 11:45:15;;;;;;;;;;;;;;;17.35;44.48;101550.81;5098206;28;1402;-48
2022/12/21 11:47:45;;;;;;;;;;;;;;;19.15;40.41;101559.41;5096672;28;1331;-50
2022/12/21 11:50:29;;;;;;;;;;;;;;;18.22;42.08;101549.88;5097465;28;1308;-54
2022/12/21 11:52:58;;;;;;;;;;;;;;;17.34;44.23;101543.66;5099537;28;1205;-48
2022/12/21 11:55:42;;;;;;;;;;;;;;;18.54;41.41;101535.19;5097953;28;1099;-46
2022/12/21 11:58:12;;;;;;;;;;;;;;;17.49;43.46;101539.38;5098580;28;1228;-48
2022/12/21 12:00:46;;;;;;;;;;;;;;;18.23;42.45;101543.28;5099382;28;1355;-50
2022/12/21 12:03:18;;;;;;;;;;;;;;;17.71;43.42;101536.53;5093964;28;2656;-48
2022/12/21 12:06:10;;;;;;;;;;;;;;;17.34;44.20;101529.91;5098124;28;987;-49
2022/12/21 12:08:56;;;;;;;;;;;;;;;18.24;42.24;101545.78;5095433;28;1267;-48
2022/12/21 12:11:43;;;;;;;;;;;;;;;17.23;44.40;101530.91;5097157;28;1038;-49
2022/12/21 12:14:08;;;;;;;;;;;;;;;19.07;40.45;101524.09;5098896;28;983;-49
2022/12/21 12:16:37;;;;;;;;;;;;;;;17.69;43.46;101530.50;5099308;28;1042;-46
2022/12/21 12:19:02;;;;;;;;;;;;;;;18.52;42.00;101529.13;5098886;28;880;-43
2022/12/21 12:21:50;;;;;;;;;;;;;;;18.17;42.48;101517.63;5099155;28;1905;-44
2022/12/21 12:24:34;;;;;;;;;;;;;;;17.33;44.27;101520.00;5097713;28;1003;-43
2022/12/21 12:27:04;;;;;;;;;;;;;;;18.29;42.17;101511.94;5085631;28;1015;-45
2022/12/21 12:29:42;;;;;;;;;;;;;;;17.38;43.85;101511.81;5097243;28;1075;-43
2022/12/21 12:32:13;;;;;;;;;;;;;;;18.80;41.26;101511.31;5090139;28;1848;-44
2022/12/21 12:34:45;;;;;;;;;;;;;;;17.83;43.10;101498.69;5094522;28;1046;-42
2022/12/21 12:37:33;;;;;;;;;;;;;;;17.20;44.29;101504.75;5098227;28;1082;-48
2022/12/21 12:40:14;;;;;;;;;;;;;;;18.37;42.19;101492.16;5097131;28;1083;-48
2022/12/21 12:42:40;;;;;;;;;;;;;;;17.20;44.55;101498.44;5097692;28;1981;-44
2022/12/21 12:45:11;;;;;;;;;;;;;;;18.70;41.49;101503.84;5098166;28;1015;-44
2022/12/21 12:47:57;;;;;;;;;;;;;;;17.83;43.21;101504.19;5098708;28;1133;-43
2022/12/21 12:50:28;;;;;;;;;;;;;;;17.19;44.50;101502.28;5096935;28;1082;-45
2022/12/21 12:53:06;;;;;;;;;;;;;;;18.05;42.81;101504.09;5098190;28;1003;-46
2022/12/21 12:55:39;;;;;;;;;;;;;;;17.21;44.43;101503.69;5097689;28;1070;-48
2022/12/21 12:58:14;;;;;;;;;;;;;;;17.96;43.07;101500.16;5096453;28;1117;-46
2022/12/21 13:00:42;;;;;;;;;;;;;;;17.62;43.51;101500.47;5097032;28;1320;-49
2022/12/21 13:03:22;;;;;;;;;;;;;;;17.14;44.82;101500.31;5093993;28;2279;-49
2022/12/21 13:06:00;;;;;;;;;;;;;;;18.47;41.81;101505.16;5098117;28;1359;-47